Time;durP1;ratioP1;P1;durP2;ratioP2;P2;SDS_P1;SDS_P2;PMS_P1;PMS_P2;Temp;Humidity;BMP_temperature;BMP_pressure;BME280_temperature;BME280_humidity;BME280_pressure;Samples;Min_cycle;Max_cycle;Signal;HPM_P1;HPM_P2
2023/02/02 00:00:45;;;;;;;7.03;1.88;;;;;;;0.27;100.00;93687.97;2061468;28;20022;-83
2023/02/02 00:01:55;;;;;;;12.43;2.40;;;;;;;0.18;100.00;93688.09;2051781;28;20019;-84
2023/02/02 00:02:56;;;;;;;8.32;2.20;;;;;;;0.17;100.00;93676.03;2062442;28;20026;-83
2023/02/02 00:03:59;;;;;;;7.00;2.00;;;;;;;0.09;100.00;93673.56;2060583;28;20023;-81
2023/02/02 00:05:02;;;;;;;6.90;1.88;;;;;;;0.52;100.00;93667.53;2062586;28;20100;-83
2023/02/02 00:06:07;;;;;;;9.77;2.88;;;;;;;0.47;100.00;93665.16;2065569;28;20026;-82
2023/02/02 00:07:09;;;;;;;6.63;1.63;;;;;;;0.52;100.00;93664.16;2072939;28;20468;-84
2023/02/02 00:08:10;;;;;;;6.60;2.10;;;;;;;0.41;100.00;93674.41;2065011;28;20030;-85
2023/02/02 00:09:14;;;;;;;10.02;2.05;;;;;;;0.50;100.00;93665.25;2059219;28;20018;-84
2023/02/02 00:10:15;;;;;;;5.95;1.83;;;;;;;0.57;100.00;93669.16;2059737;28;20118;-82
2023/02/02 00:11:17;;;;;;;9.00;2.80;;;;;;;0.45;100.00;93660.25;2059769;28;20495;-82
2023/02/02 00:12:18;;;;;;;6.53;1.80;;;;;;;0.38;100.00;93665.31;2053603;28;20077;-83
2023/02/02 00:13:19;;;;;;;11.63;2.15;;;;;;;0.25;100.00;93655.97;2051945;28;20070;-82
2023/02/02 00:14:21;;;;;;;9.98;3.08;;;;;;;0.27;100.00;93659.03;2073451;28;20042;-83
2023/02/02 00:15:22;;;;;;;7.47;1.60;;;;;;;0.37;100.00;93650.66;2054834;28;20042;-84
2023/02/02 00:16:26;;;;;;;6.45;1.77;;;;;;;0.25;100.00;93648.84;2047504;28;20019;-82
2023/02/02 00:17:29;;;;;;;7.03;2.00;;;;;;;0.19;100.00;93646.81;2065677;28;20037;-84
2023/02/02 00:18:29;;;;;;;7.72;2.33;;;;;;;0.14;100.00;93645.19;2064177;28;20026;-83
2023/02/02 00:19:31;;;;;;;8.20;2.00;;;;;;;0.46;100.00;93647.84;2057165;28;20724;-86
2023/02/02 00:20:35;;;;;;;9.95;2.10;;;;;;;0.62;100.00;93648.63;2061689;28;20029;-84
2023/02/02 00:21:37;;;;;;;5.78;2.00;;;;;;;0.47;100.00;93652.78;2063365;28;20034;-84
2023/02/02 00:22:38;;;;;;;9.15;1.75;;;;;;;0.58;100.00;93655.69;2065149;28;20533;-82
2023/02/02 00:23:38;;;;;;;9.52;1.90;;;;;;;0.45;100.00;93655.00;2065198;28;20034;-83
2023/02/02 00:24:39;;;;;;;6.97;2.33;;;;;;;0.51;100.00;93655.50;2072670;28;20032;-83
2023/02/02 00:25:40;;;;;;;10.90;1.90;;;;;;;0.47;100.00;93658.03;2065260;28;20065;-84
2023/02/02 00:26:42;;;;;;;12.63;2.20;;;;;;;0.55;100.00;93666.09;2057457;28;20026;-83
2023/02/02 00:27:43;;;;;;;8.25;2.13;;;;;;;0.46;100.00;93666.25;2062792;28;20026;-84
2023/02/02 00:28:44;;;;;;;4.78;1.88;;;;;;;0.42;100.00;93662.78;2072939;28;20095;-84
2023/02/02 00:29:45;;;;;;;8.48;2.60;;;;;;;0.47;100.00;93665.91;2064626;28;20103;-84
2023/02/02 00:30:46;;;;;;;7.50;2.28;;;;;;;0.53;100.00;93665.66;2052741;28;20457;-84
2023/02/02 00:31:48;;;;;;;10.57;2.70;;;;;;;0.33;100.00;93665.56;2059329;28;20030;-84
2023/02/02 00:32:51;;;;;;;11.52;2.60;;;;;;;0.50;100.00;93665.25;2068937;28;20030;-83
2023/02/02 00:33:51;;;;;;;9.60;2.50;;;;;;;0.40;100.00;93659.75;2055332;28;20035;-83
2023/02/02 00:34:52;;;;;;;7.68;2.55;;;;;;;0.47;100.00;93667.78;2056439;28;20034;-84
2023/02/02 00:35:53;;;;;;;9.45;3.20;;;;;;;0.48;100.00;93675.34;2058223;28;20046;-84
2023/02/02 00:36:54;;;;;;;11.32;2.50;;;;;;;0.62;100.00;93667.06;2047086;28;20440;-83
2023/02/02 00:37:55;;;;;;;13.00;2.30;;;;;;;0.60;100.00;93669.25;2063372;28;20022;-83
2023/02/02 00:38:57;;;;;;;8.00;2.20;;;;;;;0.54;100.00;93673.25;2058953;28;20023;-83
2023/02/02 00:39:58;;;;;;;12.90;2.40;;;;;;;0.58;100.00;93668.06;2052837;28;20034;-83
2023/02/02 00:40:58;;;;;;;12.88;3.25;;;;;;;0.52;100.00;93672.03;2047840;29;20027;-84
2023/02/02 00:41:59;;;;;;;7.78;2.30;;;;;;;0.49;100.00;93676.88;2046369;29;20496;-84
2023/02/02 00:43:00;;;;;;;10.55;2.40;;;;;;;0.64;100.00;93679.84;2056712;28;20046;-83
2023/02/02 00:45:23;;;;;;;11.05;2.30;;;;;;;0.71;100.00;93686.06;2069963;28;20048;-84
2023/02/02 00:46:24;;;;;;;11.13;2.50;;;;;;;0.52;100.00;93683.31;2064547;28;20563;-84
2023/02/02 00:47:25;;;;;;;14.75;2.88;;;;;;;0.43;100.00;93680.84;2051339;28;20094;-84
2023/02/02 00:48:26;;;;;;;9.90;3.15;;;;;;;0.52;100.00;93677.28;2043404;29;20796;-83
2023/02/02 00:49:27;;;;;;;16.25;2.70;;;;;;;0.39;100.00;93681.84;2043957;28;20472;-83
2023/02/02 00:50:28;;;;;;;13.75;2.58;;;;;;;0.38;100.00;93675.84;2052018;28;20103;-84
2023/02/02 00:51:29;;;;;;;13.38;2.88;;;;;;;0.29;100.00;93674.47;2050726;28;20190;-82
2023/02/02 00:52:30;;;;;;;9.95;2.65;;;;;;;0.18;100.00;93669.72;2050667;28;20027;-83
2023/02/02 00:53:31;;;;;;;10.88;2.75;;;;;;;0.62;100.00;93671.56;2066662;28;20022;-84
2023/02/02 00:54:32;;;;;;;11.85;2.70;;;;;;;0.38;100.00;93669.81;2051083;28;20026;-86
2023/02/02 00:55:33;;;;;;;11.02;3.08;;;;;;;0.42;100.00;93671.44;2054092;28;20019;-85
2023/02/02 00:56:34;;;;;;;6.78;2.20;;;;;;;0.22;100.00;93681.06;2050552;28;20022;-82
2023/02/02 00:57:35;;;;;;;11.10;2.70;;;;;;;0.20;100.00;93672.75;2057434;28;20019;-84
2023/02/02 00:58:36;;;;;;;10.05;2.60;;;;;;;0.37;100.00;93681.44;2048236;28;20134;-84
2023/02/02 00:59:37;;;;;;;9.52;2.55;;;;;;;0.27;100.00;93685.31;2048905;28;20031;-83
2023/02/02 01:00:38;;;;;;;8.85;2.50;;;;;;;0.25;100.00;93684.88;2058725;28;20045;-85
2023/02/02 01:01:39;;;;;;;11.95;2.65;;;;;;;0.30;100.00;93682.00;2066405;28;20026;-85
2023/02/02 01:02:41;;;;;;;8.45;2.22;;;;;;;0.24;100.00;93680.72;2063834;28;20025;-84
2023/02/02 01:03:42;;;;;;;9.60;2.53;;;;;;;0.20;100.00;93682.50;2061181;28;20116;-84
2023/02/02 01:04:43;;;;;;;10.90;2.78;;;;;;;0.39;100.00;93690.50;2055917;28;20026;-85
2023/02/02 01:05:44;;;;;;;8.55;2.58;;;;;;;0.28;100.00;93676.34;2071757;28;20557;-83
2023/02/02 01:06:45;;;;;;;9.63;2.67;;;;;;;0.25;100.00;93677.75;2066724;28;20057;-84
2023/02/02 01:07:46;;;;;;;11.18;2.70;;;;;;;0.22;100.00;93685.53;2065085;28;20037;-84
2023/02/02 01:08:47;;;;;;;9.80;2.95;;;;;;;0.22;100.00;93678.44;2072756;28;20018;-84
2023/02/02 01:09:48;;;;;;;6.70;2.30;;;;;;;0.19;100.00;93683.59;2064471;28;20093;-84
2023/02/02 01:10:49;;;;;;;8.10;2.13;;;;;;;0.17;100.00;93683.16;2064511;28;20023;-85
2023/02/02 01:11:50;;;;;;;9.70;2.10;;;;;;;0.26;100.00;93683.78;2055373;28;20030;-85
2023/02/02 01:12:57;;;;;;;7.88;2.53;;;;;;;0.26;100.00;93689.03;2051604;28;20015;-85
2023/02/02 01:13:58;;;;;;;6.30;2.30;;;;;;;0.23;100.00;93693.13;2051602;28;20029;-85
2023/02/02 01:14:59;;;;;;;4.80;2.03;;;;;;;0.24;100.00;93686.00;2044577;28;20039;-84
2023/02/02 01:16:04;;;;;;;10.48;2.38;;;;;;;0.23;100.00;93692.34;2050193;28;20023;-84
2023/02/02 01:17:05;;;;;;;11.27;2.17;;;;;;;0.23;100.00;93690.50;2050148;28;20027;-84
2023/02/02 01:18:06;;;;;;;8.90;2.33;;;;;;;0.31;100.00;93690.66;2072399;28;20087;-83
2023/02/02 01:19:07;;;;;;;8.38;1.95;;;;;;;0.24;100.00;93691.25;2072458;28;20029;-84
2023/02/02 01:20:15;;;;;;;10.88;2.30;;;;;;;0.39;100.00;93692.38;2064576;28;20022;-83
2023/02/02 01:21:16;;;;;;;8.60;2.22;;;;;;;0.34;100.00;93698.63;2071626;28;20077;-84
2023/02/02 01:22:17;;;;;;;6.65;1.90;;;;;;;0.29;100.00;93698.88;2066995;28;20144;-85
2023/02/02 01:23:18;;;;;;;8.25;2.40;;;;;;;0.25;100.00;93695.41;2058845;28;20026;-83
2023/02/02 01:24:19;;;;;;;5.75;2.10;;;;;;;0.34;100.00;93693.38;2049293;28;20386;-84
2023/02/02 01:25:20;;;;;;;6.82;1.83;;;;;;;0.55;100.00;93697.66;2056562;28;20018;-83
2023/02/02 01:26:21;;;;;;;5.70;1.63;;;;;;;0.57;100.00;93690.97;2067298;28;20032;-83
2023/02/02 01:27:22;;;;;;;9.30;2.50;;;;;;;0.64;100.00;93688.50;2067401;28;20013;-84
2023/02/02 01:28:24;;;;;;;6.10;2.25;;;;;;;0.46;100.00;93693.31;2067274;28;20029;-84
2023/02/02 01:29:25;;;;;;;9.80;2.00;;;;;;;0.27;100.00;93681.94;2072319;28;20022;-84
2023/02/02 01:30:26;;;;;;;5.05;1.88;;;;;;;0.26;100.00;93691.66;2062606;28;20021;-83
2023/02/02 01:31:27;;;;;;;9.98;2.00;;;;;;;0.41;100.00;93688.31;2061303;28;20094;-84
2023/02/02 01:32:28;;;;;;;4.15;1.90;;;;;;;0.30;100.00;93687.25;2072553;28;20025;-86
2023/02/02 01:33:35;;;;;;;7.80;1.77;;;;;;;0.29;100.00;93691.00;2067958;28;20432;-83
2023/02/02 01:34:40;;;;;;;5.75;1.88;;;;;;;0.48;100.00;93687.72;2063409;28;20026;-83
2023/02/02 01:35:49;;;;;;;7.28;2.03;;;;;;;0.50;100.00;93678.41;2053481;28;20024;-84
2023/02/02 01:36:50;;;;;;;7.68;2.08;;;;;;;0.44;100.00;93684.22;2061341;28;20113;-85
2023/02/02 01:37:51;;;;;;;5.32;2.10;;;;;;;0.61;100.00;93691.03;2063264;28;20507;-84
2023/02/02 01:38:52;;;;;;;6.65;1.90;;;;;;;0.43;100.00;93693.22;2064205;28;20100;-84
2023/02/02 01:39:53;;;;;;;7.15;2.10;;;;;;;0.33;100.00;93694.50;2061184;28;20094;-82
2023/02/02 01:40:56;;;;;;;6.78;2.10;;;;;;;0.34;100.00;93690.75;2042355;29;20043;-82
2023/02/02 01:41:57;;;;;;;7.80;1.77;;;;;;;0.26;100.00;93691.66;2053550;28;20023;-84
2023/02/02 01:42:58;;;;;;;5.15;1.85;;;;;;;0.26;100.00;93689.03;2049311;28;20058;-84
2023/02/02 01:44:02;;;;;;;8.45;1.90;;;;;;;0.31;100.00;93699.34;2052286;28;20598;-83
2023/02/02 01:45:22;;;;;;;8.55;2.17;;;;;;;0.28;100.00;93702.63;2056673;28;20813;-83
2023/02/02 01:46:26;;;;;;;6.20;2.53;;;;;;;0.63;100.00;93694.13;2061155;28;20033;-82
2023/02/02 01:47:31;;;;;;;6.43;2.30;;;;;;;0.48;100.00;93685.09;2058677;28;20497;-83
2023/02/02 01:48:34;;;;;;;4.95;1.90;;;;;;;0.41;100.00;93696.22;2047984;28;20027;-83
2023/02/02 01:49:37;;;;;;;12.38;3.80;;;;;;;0.32;100.00;93692.22;2053125;28;20066;-83
2023/02/02 01:50:38;;;;;;;7.78;1.85;;;;;;;0.34;100.00;93706.53;2049840;28;20494;-84
2023/02/02 01:52:11;;;;;;;13.23;2.33;;;;;;;0.34;100.00;93700.50;2045850;28;20516;-83
2023/02/02 01:53:12;;;;;;;8.80;2.10;;;;;;;0.34;100.00;93703.91;2039617;29;20091;-82
2023/02/02 01:54:23;;;;;;;9.23;2.50;;;;;;;0.29;100.00;93708.66;2056644;28;20105;-84
2023/02/02 01:55:28;;;;;;;10.98;2.10;;;;;;;0.30;100.00;93704.91;2063263;28;20424;-84
2023/02/02 01:56:38;;;;;;;9.45;2.53;;;;;;;0.31;100.00;93696.69;2064790;28;20649;-83
2023/02/02 01:57:44;;;;;;;8.95;2.17;;;;;;;0.47;100.00;93697.47;2050736;28;20029;-82
2023/02/02 01:58:45;;;;;;;9.55;2.25;;;;;;;0.37;100.00;93703.22;2049805;28;20031;-83
2023/02/02 01:59:47;;;;;;;10.30;2.60;;;;;;;0.40;100.00;93699.94;2067156;28;20030;-83
2023/02/02 02:00:49;;;;;;;6.78;2.25;;;;;;;0.32;100.00;93692.97;2060392;28;20443;-85
2023/02/02 02:01:51;;;;;;;9.77;2.10;;;;;;;0.53;100.00;93694.59;2055818;28;20077;-83
2023/02/02 02:02:57;;;;;;;7.43;2.42;;;;;;;0.64;100.00;93687.75;2056101;28;20022;-83
2023/02/02 02:03:58;;;;;;;6.75;2.05;;;;;;;0.85;100.00;93693.53;2055608;28;20030;-84
2023/02/02 02:05:01;;;;;;;14.98;4.28;;;;;;;0.72;100.00;93679.69;2056083;28;20122;-86
2023/02/02 02:06:04;;;;;;;9.13;2.17;;;;;;;0.59;100.00;93688.00;2057702;28;20030;-82
2023/02/02 02:07:06;;;;;;;6.07;1.92;;;;;;;0.60;100.00;93687.66;2072191;28;20036;-84
2023/02/02 02:08:27;;;;;;;9.93;2.35;;;;;;;0.82;100.00;93683.69;2068098;28;20106;-84
2023/02/02 02:09:28;;;;;;;7.32;1.85;;;;;;;0.69;100.00;93687.50;2060595;28;20029;-84
2023/02/02 02:10:29;;;;;;;8.02;2.15;;;;;;;0.60;100.00;93682.41;2051557;28;20050;-83
2023/02/02 02:11:32;;;;;;;6.82;2.25;;;;;;;0.63;100.00;93684.34;2046071;28;20015;-82
2023/02/02 02:12:33;;;;;;;9.55;2.33;;;;;;;0.61;100.00;93680.53;2051541;28;20118;-83
2023/02/02 02:16:21;;;;;;;6.32;2.00;;;;;;;0.62;100.00;93689.97;2080396;28;20028;-83
2023/02/02 02:17:59;;;;;;;8.05;2.25;;;;;;;0.48;100.00;93679.81;2060439;28;20026;-83
2023/02/02 02:19:30;;;;;;;8.55;2.72;;;;;;;0.65;100.00;93673.47;2073202;28;20030;-83
2023/02/02 02:26:39;;;;;;;7.38;2.15;;;;;;;0.61;100.00;93670.00;2074193;28;20097;-83
2023/02/02 02:28:14;;;;;;;12.38;2.08;;;;;;;0.67;100.00;93656.28;2058939;28;20034;-84
2023/02/02 02:29:40;;;;;;;9.90;1.90;;;;;;;0.71;100.00;93667.66;2041304;29;20050;-84
2023/02/02 02:30:46;;;;;;;11.55;3.10;;;;;;;0.60;100.00;93663.97;2052200;28;20022;-83
2023/02/02 02:32:13;;;;;;;10.98;2.40;;;;;;;0.54;100.00;93660.09;2049279;28;20024;-83
2023/02/02 02:33:37;;;;;;;11.98;2.28;;;;;;;0.62;100.00;93664.41;2074236;28;20467;-84
2023/02/02 02:34:48;;;;;;;10.38;2.42;;;;;;;0.72;100.00;93666.53;2057986;28;20476;-82
2023/02/02 02:36:12;;;;;;;10.45;2.13;;;;;;;0.58;100.00;93668.06;2058785;28;20041;-84
2023/02/02 02:37:46;;;;;;;10.18;2.22;;;;;;;0.52;100.00;93661.50;2064023;28;20025;-83
2023/02/02 02:38:59;;;;;;;9.98;2.10;;;;;;;0.65;100.00;93657.69;2050784;28;20039;-83
2023/02/02 02:40:19;;;;;;;13.98;2.38;;;;;;;0.89;100.00;93659.41;2047044;28;20069;-84
2023/02/02 02:41:26;;;;;;;11.60;2.78;;;;;;;0.75;100.00;93654.59;2060980;28;20035;-83
2023/02/02 02:42:32;;;;;;;13.93;2.70;;;;;;;0.69;100.00;93661.19;2053474;28;20030;-83
2023/02/02 02:43:44;;;;;;;10.10;2.92;;;;;;;0.57;100.00;93658.63;2058289;28;20527;-83
2023/02/02 02:44:48;;;;;;;10.80;2.28;;;;;;;0.78;100.00;93656.50;2060279;28;20033;-84
2023/02/02 02:45:49;;;;;;;11.73;2.13;;;;;;;0.86;100.00;93654.81;2051706;28;20035;-83
2023/02/02 02:46:50;;;;;;;9.15;1.98;;;;;;;0.81;100.00;93655.84;2047410;28;20066;-83
2023/02/02 02:47:52;;;;;;;11.95;2.30;;;;;;;0.66;100.00;93654.75;2049582;28;20039;-83
2023/02/02 02:48:57;;;;;;;11.57;2.80;;;;;;;0.75;100.00;93660.59;2069905;28;20064;-83
2023/02/02 02:49:57;;;;;;;13.98;2.35;;;;;;;0.63;100.00;93665.19;2063297;28;20499;-83
2023/02/02 02:51:28;;;;;;;11.68;2.28;;;;;;;0.61;100.00;93662.09;2060192;28;20026;-83
2023/02/02 02:52:31;;;;;;;12.32;2.38;;;;;;;0.76;100.00;93664.00;2065763;28;20080;-86
2023/02/02 02:53:32;;;;;;;15.27;2.65;;;;;;;0.60;100.00;93655.31;2057753;28;20026;-82
2023/02/02 02:54:37;;;;;;;10.90;2.30;;;;;;;0.68;100.00;93662.28;2055681;28;20021;-82
2023/02/02 02:56:17;;;;;;;9.07;2.10;;;;;;;0.87;100.00;93665.00;2058827;28;20093;-83
2023/02/02 02:57:40;;;;;;;12.00;2.13;;;;;;;0.98;100.00;93678.41;2054759;28;20713;-84
2023/02/02 02:58:53;;;;;;;10.80;2.20;;;;;;;0.91;100.00;93676.38;2058807;28;20030;-83
2023/02/02 03:00:10;;;;;;;14.75;2.20;;;;;;;0.93;100.00;93674.19;2060523;28;20026;-84
2023/02/02 03:01:37;;;;;;;11.52;2.38;;;;;;;0.81;100.00;93671.63;2067548;28;20022;-83
2023/02/02 03:02:52;;;;;;;10.70;1.98;;;;;;;0.69;100.00;93676.97;2068820;28;20092;-82
2023/02/02 03:04:20;;;;;;;9.90;2.53;;;;;;;0.62;100.00;93676.81;2055152;28;20019;-84
2023/02/02 03:05:29;;;;;;;12.40;2.30;;;;;;;0.75;100.00;93679.03;2051798;28;20539;-83
2023/02/02 03:06:51;;;;;;;7.95;2.40;;;;;;;0.72;100.00;93665.78;2052274;28;20150;-84
2023/02/02 03:08:02;;;;;;;11.48;2.22;;;;;;;0.74;100.00;93682.72;2061854;28;20547;-83
2023/02/02 03:09:09;;;;;;;8.43;1.73;;;;;;;1.19;100.00;93665.00;2046678;28;20053;-84
2023/02/02 03:10:13;;;;;;;10.00;2.30;;;;;;;1.11;100.00;93671.19;2050475;28;20054;-83
2023/02/02 03:11:15;;;;;;;10.45;2.28;;;;;;;0.89;100.00;93673.34;2060519;28;20499;-83
2023/02/02 03:12:17;;;;;;;6.50;1.70;;;;;;;0.96;100.00;93670.84;2057952;28;20037;-83
2023/02/02 03:13:18;;;;;;;9.15;2.75;;;;;;;0.84;100.00;93670.97;2059732;28;20019;-84
2023/02/02 03:14:19;;;;;;;11.93;2.50;;;;;;;0.76;100.00;93679.78;2065155;28;20101;-84
2023/02/02 03:15:22;;;;;;;7.60;2.10;;;;;;;1.06;100.00;93674.09;2065374;28;20022;-83
2023/02/02 03:16:23;;;;;;;10.18;2.10;;;;;;;0.84;100.00;93676.22;2054484;28;20023;-81
2023/02/02 03:17:26;;;;;;;11.20;2.10;;;;;;;0.75;100.00;93671.13;2046244;28;20369;-82
2023/02/02 03:18:29;;;;;;;11.50;2.45;;;;;;;0.77;100.00;93678.66;2049739;28;20493;-82
2023/02/02 03:19:30;;;;;;;8.43;2.25;;;;;;;0.66;100.00;93677.63;2060828;28;20428;-83
2023/02/02 03:20:31;;;;;;;13.07;2.42;;;;;;;0.55;100.00;93674.75;2072281;28;20049;-84
2023/02/02 03:21:33;;;;;;;10.77;2.25;;;;;;;0.54;100.00;93678.50;2068845;28;20153;-85
2023/02/02 03:22:34;;;;;;;4.97;2.15;;;;;;;0.73;100.00;93681.22;2063231;28;20081;-84
2023/02/02 03:23:35;;;;;;;8.27;2.10;;;;;;;0.61;100.00;93675.25;2058038;28;20069;-85
2023/02/02 03:24:36;;;;;;;8.35;2.28;;;;;;;0.54;100.00;93675.09;2059823;28;20468;-84
2023/02/02 03:25:37;;;;;;;5.13;1.92;;;;;;;0.52;100.00;93672.78;2051536;28;20519;-83
2023/02/02 03:26:38;;;;;;;8.60;2.03;;;;;;;0.65;100.00;93673.47;2057972;28;20032;-83
2023/02/02 03:27:39;;;;;;;10.52;2.20;;;;;;;0.65;100.00;93676.88;2051522;28;20078;-84
2023/02/02 03:28:40;;;;;;;15.18;2.65;;;;;;;0.63;100.00;93675.69;2050485;28;20027;-83
2023/02/02 03:29:41;;;;;;;6.90;2.03;;;;;;;0.56;100.00;93678.91;2060375;28;20022;-82
2023/02/02 03:30:44;;;;;;;8.70;2.00;;;;;;;0.57;100.00;93667.31;2051611;28;20023;-84
2023/02/02 03:31:46;;;;;;;12.13;2.00;;;;;;;0.45;100.00;93673.41;2065593;28;20030;-83
2023/02/02 03:32:50;;;;;;;5.57;1.88;;;;;;;0.34;100.00;93680.25;2057577;28;20043;-83
2023/02/02 03:33:51;;;;;;;9.63;2.00;;;;;;;0.45;100.00;93673.41;2046495;28;20822;-83
2023/02/02 03:34:52;;;;;;;8.20;2.05;;;;;;;0.39;100.00;93669.47;2057282;28;20113;-83
2023/02/02 03:35:53;;;;;;;7.68;2.22;;;;;;;0.49;100.00;93676.88;2061553;28;20088;-84
2023/02/02 03:36:54;;;;;;;9.23;2.03;;;;;;;0.53;100.00;93674.34;2053878;28;20074;-84
2023/02/02 03:37:55;;;;;;;10.52;2.05;;;;;;;0.53;100.00;93676.97;2053545;28;20117;-82
2023/02/02 03:38:58;;;;;;;5.57;1.70;;;;;;;0.56;100.00;93672.88;2059085;28;20043;-83
2023/02/02 03:39:59;;;;;;;10.40;2.00;;;;;;;0.49;100.00;93682.13;2061145;28;20197;-84
2023/02/02 03:41:00;;;;;;;8.40;1.50;;;;;;;0.49;100.00;93676.13;2059759;28;20026;-84
2023/02/02 03:42:01;;;;;;;12.85;1.98;;;;;;;0.43;100.00;93677.44;2049397;28;20105;-84
2023/02/02 03:43:02;;;;;;;5.43;1.80;;;;;;;0.39;100.00;93692.38;2051563;28;20140;-83
2023/02/02 03:44:03;;;;;;;6.68;1.65;;;;;;;0.41;100.00;93688.31;2053803;28;20478;-85
2023/02/02 03:45:05;;;;;;;11.45;2.10;;;;;;;0.37;100.00;93695.34;2063188;28;20387;-82
2023/02/02 03:46:07;;;;;;;7.00;1.70;;;;;;;0.35;100.00;93687.03;2071160;28;20057;-83
2023/02/02 03:47:08;;;;;;;5.13;1.70;;;;;;;0.42;100.00;93673.31;2053255;28;20405;-82
2023/02/02 03:48:09;;;;;;;7.07;1.80;;;;;;;0.49;100.00;93687.41;2054553;28;20137;-84
2023/02/02 03:49:10;;;;;;;7.28;1.70;;;;;;;0.64;100.00;93677.22;2057058;28;20019;-82
2023/02/02 03:50:11;;;;;;;7.10;1.65;;;;;;;1.16;100.00;93686.72;2051876;28;20035;-84
2023/02/02 03:51:13;;;;;;;7.80;1.67;;;;;;;0.92;100.00;93685.03;2056276;28;20035;-83
2023/02/02 03:52:14;;;;;;;5.03;1.45;;;;;;;0.73;100.00;93677.81;2059728;28;20014;-84
2023/02/02 03:53:15;;;;;;;6.80;1.38;;;;;;;0.56;100.00;93680.78;2073365;28;20022;-84
2023/02/02 03:54:16;;;;;;;5.07;1.45;;;;;;;0.57;100.00;93677.81;2064977;28;20061;-84
2023/02/02 03:55:17;;;;;;;6.22;1.50;;;;;;;0.57;100.00;93677.03;2052266;28;20023;-84
2023/02/02 03:56:18;;;;;;;7.22;1.90;;;;;;;0.49;100.00;93684.78;2059373;28;20104;-83
2023/02/02 03:57:19;;;;;;;5.43;1.50;;;;;;;0.45;100.00;93678.66;2061508;28;20030;-84
2023/02/02 03:58:21;;;;;;;5.75;1.55;;;;;;;0.44;100.00;93682.41;2065108;28;20076;-83
2023/02/02 03:59:22;;;;;;;4.13;1.67;;;;;;;0.47;100.00;93684.31;2061516;28;20019;-83
2023/02/02 04:00:23;;;;;;;6.82;1.23;;;;;;;0.47;100.00;93681.69;2059771;28;20562;-82
2023/02/02 04:01:27;;;;;;;7.82;1.58;;;;;;;0.43;100.00;93694.00;2058826;28;20043;-83
2023/02/02 04:02:28;;;;;;;4.03;1.30;;;;;;;0.42;100.00;93689.06;2052319;28;20026;-86
2023/02/02 04:03:29;;;;;;;5.72;1.63;;;;;;;0.45;100.00;93693.66;2040916;29;20524;-83
2023/02/02 04:04:30;;;;;;;4.32;1.35;;;;;;;0.38;100.00;93693.47;2061060;28;20062;-83
2023/02/02 04:05:31;;;;;;;4.03;1.35;;;;;;;0.58;100.00;93697.75;2073141;28;20112;-84
2023/02/02 04:06:32;;;;;;;4.43;1.50;;;;;;;0.56;100.00;93696.56;2058007;28;20042;-83
2023/02/02 04:07:33;;;;;;;2.97;1.67;;;;;;;0.46;100.00;93698.59;2058757;28;20022;-81
2023/02/02 04:08:34;;;;;;;3.60;1.52;;;;;;;0.70;100.00;93699.53;2054069;28;20026;-82
2023/02/02 04:09:35;;;;;;;4.65;1.73;;;;;;;0.93;100.00;93691.84;2056969;28;20793;-84
2023/02/02 04:10:38;;;;;;;6.60;1.73;;;;;;;0.84;100.00;93697.28;2052645;28;20019;-84
2023/02/02 04:11:39;;;;;;;4.78;1.70;;;;;;;0.68;100.00;93688.59;2057866;28;20336;-83
2023/02/02 04:12:40;;;;;;;6.57;1.48;;;;;;;0.78;100.00;93687.31;2046690;29;20035;-84
2023/02/02 04:13:42;;;;;;;5.38;1.27;;;;;;;1.02;100.00;93689.78;2043727;28;20056;-82
2023/02/02 04:14:43;;;;;;;4.80;1.45;;;;;;;0.76;100.00;93695.56;2046598;28;20106;-83
2023/02/02 04:15:44;;;;;;;5.90;2.00;;;;;;;0.60;100.00;93694.78;2062749;28;20097;-84
2023/02/02 04:16:45;;;;;;;5.88;1.65;;;;;;;0.55;100.00;93693.16;2063981;28;20022;-83
2023/02/02 04:17:46;;;;;;;6.68;2.40;;;;;;;0.47;100.00;93696.72;2062322;28;20026;-83
2023/02/02 04:18:47;;;;;;;6.45;1.80;;;;;;;0.50;100.00;93702.06;2061996;28;20026;-83
2023/02/02 04:19:57;;;;;;;5.35;1.70;;;;;;;0.47;100.00;93696.72;2064951;28;20114;-83
2023/02/02 04:21:05;;;;;;;7.68;1.80;;;;;;;0.43;100.00;93696.63;2063892;28;20018;-83
2023/02/02 04:22:09;;;;;;;5.22;1.65;;;;;;;0.55;100.00;93697.66;2052824;28;20173;-83
2023/02/02 04:23:10;;;;;;;11.50;2.20;;;;;;;0.65;100.00;93697.91;2070587;28;20363;-82
2023/02/02 04:24:13;;;;;;;5.75;2.00;;;;;;;0.57;100.00;93696.25;2080850;28;20029;-83
2023/02/02 04:25:14;;;;;;;6.93;2.10;;;;;;;0.72;100.00;93699.97;2068355;28;20034;-83
2023/02/02 04:26:15;;;;;;;7.43;2.53;;;;;;;0.63;100.00;93689.63;2068762;28;20446;-82
2023/02/02 04:27:16;;;;;;;11.10;2.35;;;;;;;0.68;100.00;93693.88;2058186;28;20022;-83
2023/02/02 04:28:17;;;;;;;6.60;1.90;;;;;;;0.73;100.00;93691.72;2056453;28;20031;-83
2023/02/02 04:29:18;;;;;;;3.33;1.90;;;;;;;0.87;100.00;93687.91;2055836;28;20034;-85
2023/02/02 04:30:19;;;;;;;8.20;2.28;;;;;;;0.83;100.00;93687.06;2051572;28;20482;-82
2023/02/02 04:31:20;;;;;;;5.90;2.05;;;;;;;0.69;100.00;93701.41;2043654;29;20516;-82
2023/02/02 04:32:21;;;;;;;6.88;2.13;;;;;;;0.63;100.00;93691.47;2061209;28;20023;-83
2023/02/02 04:33:23;;;;;;;9.60;2.50;;;;;;;0.55;100.00;93690.53;2052342;28;20027;-83
2023/02/02 04:34:24;;;;;;;5.90;2.33;;;;;;;0.51;100.00;93697.56;2056940;28;20015;-83
2023/02/02 04:35:25;;;;;;;9.48;2.65;;;;;;;0.63;100.00;93700.13;2059674;28;20716;-83
2023/02/02 04:36:26;;;;;;;10.18;2.35;;;;;;;0.50;100.00;93694.19;2061444;28;20062;-84
2023/02/02 04:37:30;;;;;;;12.35;2.72;;;;;;;0.53;100.00;93691.97;2057242;28;20035;-83
2023/02/02 04:38:31;;;;;;;11.93;2.20;;;;;;;0.54;100.00;93693.50;2046668;28;20102;-82
2023/02/02 04:39:32;;;;;;;12.32;2.33;;;;;;;0.74;100.00;93705.66;2059019;28;20383;-82
2023/02/02 04:40:41;;;;;;;6.72;2.20;;;;;;;0.60;100.00;93702.69;2068022;28;20034;-83
2023/02/02 04:41:42;;;;;;;10.88;2.65;;;;;;;0.46;100.00;93693.31;2066248;28;20118;-84
2023/02/02 04:42:44;;;;;;;10.32;2.33;;;;;;;0.65;100.00;93695.28;2058057;28;20057;-82
2023/02/02 04:43:45;;;;;;;9.68;2.53;;;;;;;0.55;100.00;93697.66;2072966;28;20030;-83
2023/02/02 04:44:46;;;;;;;8.68;2.10;;;;;;;0.63;100.00;93702.00;2064657;28;20049;-86
2023/02/02 04:45:48;;;;;;;7.38;2.10;;;;;;;0.58;100.00;93697.75;2058587;28;20089;-84
2023/02/02 04:46:49;;;;;;;11.18;2.22;;;;;;;0.49;100.00;93697.91;2060730;28;20630;-82
2023/02/02 04:47:50;;;;;;;7.90;2.78;;;;;;;0.56;100.00;93699.94;2049686;28;20031;-82
2023/02/02 04:48:51;;;;;;;6.57;2.58;;;;;;;0.63;100.00;93704.63;2056518;28;20034;-85
2023/02/02 04:49:52;;;;;;;6.93;1.90;;;;;;;0.57;100.00;93703.34;2050714;28;20402;-83
2023/02/02 04:51:14;;;;;;;6.22;2.33;;;;;;;0.59;100.00;93707.19;2060535;28;20459;-83
2023/02/02 04:52:15;;;;;;;6.70;2.13;;;;;;;0.65;100.00;93705.81;2059855;28;20023;-83
2023/02/02 04:53:15;;;;;;;9.57;2.10;;;;;;;0.64;100.00;93708.78;2057439;28;20889;-83
2023/02/02 04:54:17;;;;;;;5.57;1.98;;;;;;;0.54;100.00;93704.03;2046012;28;20031;-83
2023/02/02 04:55:18;;;;;;;9.00;3.28;;;;;;;0.40;100.00;93713.09;2053703;28;20025;-84
2023/02/02 04:56:19;;;;;;;7.20;2.28;;;;;;;0.67;100.00;93706.25;2058602;28;20383;-83
2023/02/02 04:57:20;;;;;;;8.25;2.28;;;;;;;0.54;100.00;93704.03;2056761;28;20547;-84
2023/02/02 04:58:21;;;;;;;8.60;2.47;;;;;;;0.49;100.00;93712.94;2051294;28;20023;-84
2023/02/02 04:59:22;;;;;;;10.23;2.80;;;;;;;0.50;100.00;93714.47;2065721;28;20388;-83
2023/02/02 05:00:23;;;;;;;7.22;2.20;;;;;;;0.43;100.00;93714.25;2054856;28;20042;-83
2023/02/02 05:01:32;;;;;;;12.18;2.47;;;;;;;0.40;100.00;93713.09;2052722;28;20019;-83
2023/02/02 05:02:37;;;;;;;4.85;2.10;;;;;;;0.47;100.00;93713.25;2053084;28;20015;-83
2023/02/02 05:03:38;;;;;;;8.35;2.53;;;;;;;0.80;100.00;93712.22;2072618;28;20018;-83
2023/02/02 05:04:39;;;;;;;6.05;2.10;;;;;;;0.70;100.00;93707.44;2064647;28;20026;-83
2023/02/02 05:05:40;;;;;;;5.93;2.20;;;;;;;0.61;100.00;93715.47;2072294;28;20033;-86
2023/02/02 05:06:42;;;;;;;4.43;1.90;;;;;;;0.91;100.00;93712.44;2064478;28;20033;-83
2023/02/02 05:07:43;;;;;;;6.90;1.73;;;;;;;0.74;100.00;93722.19;2048623;28;20764;-84
2023/02/02 05:08:45;;;;;;;9.65;2.15;;;;;;;0.67;100.00;93711.50;2068646;28;20487;-83
2023/02/02 05:09:46;;;;;;;8.95;2.50;;;;;;;0.55;100.00;93714.22;2056895;28;20028;-82
2023/02/02 05:10:48;;;;;;;4.93;1.90;;;;;;;0.58;100.00;93720.69;2067953;28;20037;-83